Flight Track Log - Related Links

Times and Time Zones

All times are in EDT time to prevent confusion due to time zone crossing. See the UAL4335 flight status page for this flight to view local times or setup timezone preferences in your user account.

Time Position Orientation Groundspeed Altitude Reporting Facility
EDT Latitude Longitude Course Direction KTS MPH feet Rate Location/Type
Sat 06:06:44 PM 40.5042 -80.1408 42° Northeast 217 250 3,800  Level Cleveland Center
Sat 06:07:44 PM 40.5708 -80.1267 North 241 277 5,900 2,450 Climbing Cleveland Center
Sat 06:08:00 PM 40.7440 -80.2056 North  Level FlightAware Approximate
Sat 06:08:44 PM 40.6372 -80.0742 31° Northeast 252 290 8,700  Level Cleveland Center
Sat 06:09:00 PM 40.8280 -80.1887 37° Northeast  Level FlightAware Approximate
Sat 06:09:44 PM 40.6975 -80.0217 33° Northeast 257 296 11,900  Level Cleveland Center
Sat 06:10:00 PM 40.8946 -80.1147 41° Northeast  Level FlightAware Approximate
Sat 06:10:44 PM 40.7597 -79.9692 33° Northeast 262 302 14,500  Level Cleveland Center
Sat 06:11:00 PM 40.9597 -80.0384 42° Northeast  Level FlightAware Approximate
Sat 06:11:44 PM 40.8242 -79.9164 32° Northeast 262 302 16,700  Level Cleveland Center
Sat 06:12:00 PM 41.0241 -79.9611 42° Northeast  Level FlightAware Approximate
Sat 06:12:44 PM 40.8883 -79.8608 33° Northeast 268 308 18,400  Level Cleveland Center
Sat 06:13:44 PM 40.9608 -79.8022 31° Northeast 279 321 19,700 950 Climbing Cleveland Center
Sat 06:14:44 PM 41.0417 -79.7325 33° Northeast 310 357 20,300 800 Climbing Cleveland Center
Sat 06:15:44 PM 41.1392 -79.6486 33° Northeast 349 402 21,300 1,100 Climbing Cleveland Center
Sat 06:16:44 PM 41.2239 -79.5783 32° Northeast 370 426 22,500 1,400 Climbing Cleveland Center
Sat 06:17:44 PM 41.3150 -79.5022 32° Northeast 383 441 24,100 1,250 Climbing Cleveland Center
Sat 06:18:44 PM 41.4142 -79.4147 33° Northeast 383 441 25,000 450 Climbing Cleveland Center
Sat 06:19:44 PM 41.5050 -79.3383 32° Northeast 383 441 25,000  Level Cleveland Center
Sat 06:20:44 PM 41.5814 -79.2703 34° Northeast 361 415 25,000  Level Cleveland Center
Sat 06:21:44 PM 41.6578 -79.2047 33° Northeast 336 387 25,000  Level Cleveland Center
Sat 06:22:44 PM 41.7278 -79.1392 35° Northeast 315 362 25,000  Level Cleveland Center
Sat 06:23:44 PM 41.7958 -79.0764 35° Northeast 302 348 25,000  Level Cleveland Center
Sat 06:24:44 PM 41.8361 -78.9694 63° Northeast 293 337 25,000  Level Cleveland Center
Sat 06:25:44 PM 41.7967 -78.8397 112° Southeast 299 344 25,000  Level Cleveland Center
Sat 06:26:44 PM 41.7406 -78.7158 121° Southeast 333 383 25,000  Level Cleveland Center
Sat 06:27:44 PM 41.6986 -78.5781 112° Southeast 372 428 25,000  Level Cleveland Center
Sat 06:28:44 PM 41.6586 -78.4431 112° Southeast 386 444 25,000  Level Cleveland Center
Sat 06:29:51 PM 41.6136 -78.3044 113° Southeast 391 450 25,000  Level New York Center
Sat 06:30:52 PM 41.5669 -78.1522 112° Southeast 416 479 25,000  Level New York Center
Sat 06:31:53 PM 41.5208 -77.9892 111° Southeast 446 513 25,000  Level New York Center
Sat 06:32:51 PM 41.4911 -77.8225 103° East 465 535 25,000  Level New York Center
Sat 06:33:51 PM 41.4678 -77.6511 100° East 465 535 25,000  Level New York Center
Sat 06:34:53 PM 41.4425 -77.4767 101° East 465 535 25,000  Level New York Center
Sat 06:35:54 PM 41.4164 -77.3108 102° East 465 535 25,000  Level New York Center
Sat 06:36:51 PM 41.3919 -77.1425 101° East 465 535 25,000  Level New York Center
Sat 06:37:51 PM 41.3658 -76.9714 101° East 460 529 25,000  Level New York Center
Sat 06:38:52 PM 41.3411 -76.8033 101° East 460 529 25,000  Level New York Center
Sat 06:39:52 PM 41.2975 -76.6308 109° East 470 541 25,000 -694 Level New York Center
Sat 06:40:53 PM 41.2517 -76.4642 110° East 475 547 23,600 -1,815 Descending New York Center
Sat 06:41:51 PM 41.2072 -76.3031 110° East 475 547 21,400 -2,492 Descending New York Center
Sat 06:42:51 PM 41.1686 -76.1456 108° East 470 541 18,700 -1,869 Descending New York Center
Sat 06:43:53 PM 41.1217 -75.9822 111° Southeast 433 498 17,600 -1,750 Descending New York Center
Sat 06:44:51 PM 41.0842 -75.8389 109° East 418 481 15,200 -2,269 Descending New York Center
Sat 06:45:52 PM 41.0464 -75.6986 110° East 407 468 13,100 -1,082 Descending New York Center
Sat 06:46:53 PM 41.0194 -75.5947 109° East 363 418 13,000 -403 Descending New York Center
Sat 06:47:51 PM 40.9864 -75.4825 111° Southeast 333 383 12,300 -1,220 Descending New York Center
Sat 06:48:51 PM 40.9553 -75.3758 111° Southeast 312 359 10,600 -1,672 Descending New York Center
Sat 06:49:53 PM 40.9258 -75.2750 111° Southeast 302 348 8,900 -1,672 Descending New York Center
Sat 06:50:53 PM 40.8944 -75.1631 110° East 292 336 7,200 -950 Descending New York Center
Sat 06:51:53 PM 40.8669 -75.0653 110° East 292 336 7,000 -102 Descending New York Center
Sat 06:52:51 PM 40.8392 -74.9675 111° Southeast 292 336 7,000  Level New York Center
Sat 06:53:52 PM 40.8136 -74.8644 108° East 287 330 7,000 -446 Level New York Center
Sat 06:54:52 PM 40.7936 -74.7783 107° East 287 330 6,100 -500 Descending New York Center
Sat 06:55:52 PM 40.7742 -74.6731 104° East 276 318 6,000 -198 Descending New York Center
Sat 06:56:53 PM 40.8119 -74.6014 55° Northeast 248 285 5,700 -488 Descending New York Center
Sat 06:57:18 PM 40.8333 -74.5500 61° Northeast 270 311 5,300 -424 Descending New York TRACON
Sat 06:58:18 PM 40.8667 -74.4833 57° Northeast 240 276 5,100 -194 Descending New York TRACON
Sat 06:58:51 PM 40.8917 -74.4519 44° Northeast 244 281 5,000 -65 Descending New York Center
Sat 06:59:51 PM 40.9111 -74.3625 74° East 227 261 5,000  Level New York Center
Sat 07:00:19 PM 40.9167 -74.3167 81° East 235 270 5,000 -614 Level New York TRACON
Sat 07:01:19 PM 40.9167 -74.2333 90° East 229 264 4,100 -667 Descending New York TRACON
Sat 07:02:52 PM 40.8828 -74.1250 112° Southeast 215 247 3,300 -431 Descending New York Center
Sat 07:03:52 PM 40.8503 -74.0906 141° Southeast 180 207 3,000 -414 Descending New York Center
Sat 07:04:19 PM 40.8333 -74.0833 162° South 161 185 2,700 -667 Descending New York TRACON

Login

Don't have an account? Register now (free) for customized features, flight alerts, and more!